createdAt,value
2017-09-05T00:00:24.479Z,19.70
2017-09-05T00:02:54.355Z,19.70
2017-09-05T00:05:22.024Z,19.70
2017-09-05T00:11:09.340Z,19.70
2017-09-05T00:13:41.440Z,19.70
2017-09-05T00:19:14.264Z,19.70
2017-09-05T00:22:01.392Z,19.70
2017-09-05T00:24:30.619Z,19.60
2017-09-05T00:26:58.311Z,19.60
2017-09-05T00:29:26.810Z,19.70
2017-09-05T00:31:54.498Z,19.70
2017-09-05T00:34:23.897Z,19.60
2017-09-05T00:36:52.448Z,19.60
2017-09-05T00:39:20.954Z,19.70
2017-09-05T00:41:48.723Z,19.60
2017-09-05T00:44:17.145Z,19.60
2017-09-05T00:46:44.838Z,19.60
2017-09-05T00:49:12.521Z,19.60
2017-09-05T00:51:40.218Z,19.60
2017-09-05T00:54:07.966Z,19.60
2017-09-05T00:56:35.598Z,19.60
2017-09-05T00:59:03.291Z,19.60
2017-09-05T01:04:02.631Z,19.60
2017-09-05T01:06:30.560Z,19.60
2017-09-05T01:08:58.284Z,19.60
2017-09-05T01:11:25.968Z,19.60
2017-09-05T01:13:53.671Z,19.60
2017-09-05T01:16:21.341Z,19.60
2017-09-05T01:18:49.283Z,19.60
2017-09-05T01:21:17.999Z,19.60
2017-09-05T01:23:45.654Z,19.60
2017-09-05T01:26:13.517Z,19.60
2017-09-05T01:28:41.152Z,19.60
2017-09-05T01:31:08.855Z,19.60
2017-09-05T01:33:36.616Z,19.60
2017-09-05T01:36:04.470Z,19.60
2017-09-05T01:38:32.188Z,19.60
2017-09-05T01:40:59.883Z,19.60
2017-09-05T01:43:27.663Z,19.60
2017-09-05T01:45:55.448Z,19.60
2017-09-05T01:48:23.307Z,19.60
2017-09-05T01:50:52.525Z,19.60
2017-09-05T01:53:39.216Z,19.60
2017-09-05T01:56:06.904Z,19.60
2017-09-05T01:58:34.745Z,19.60
2017-09-05T02:01:02.609Z,19.60
2017-09-05T02:03:30.244Z,19.60
2017-09-05T02:05:58.032Z,19.60
2017-09-05T02:08:25.813Z,19.60
2017-09-05T02:10:53.680Z,19.60
2017-09-05T02:13:21.523Z,19.60
2017-09-05T02:15:49.156Z,19.60
2017-09-05T02:18:17.984Z,19.60
2017-09-05T02:20:47.412Z,19.60
2017-09-05T02:23:15.967Z,19.60
2017-09-05T02:25:43.660Z,19.60
2017-09-05T02:28:12.244Z,19.60
2017-09-05T02:30:41.530Z,19.60
2017-09-05T02:33:09.255Z,19.50
2017-09-05T02:35:36.945Z,19.60
2017-09-05T02:38:04.624Z,19.50
2017-09-05T02:40:32.322Z,19.50
2017-09-05T02:43:00.019Z,19.50
2017-09-05T02:45:27.798Z,19.50
2017-09-05T02:47:55.476Z,19.60
2017-09-05T02:50:24.080Z,19.60
2017-09-05T02:52:51.921Z,19.60
2017-09-05T02:55:19.632Z,19.60
2017-09-05T02:57:47.389Z,19.60
2017-09-05T03:00:15.019Z,19.60
2017-09-05T03:02:42.791Z,19.60
2017-09-05T03:05:11.462Z,19.60
2017-09-05T03:07:39.143Z,19.50
2017-09-05T03:10:06.776Z,19.50
2017-09-05T03:12:34.556Z,19.60
2017-09-05T03:15:03.149Z,19.50
2017-09-05T03:17:30.923Z,19.60
2017-09-05T03:19:59.164Z,19.60
2017-09-05T03:22:26.821Z,19.50
2017-09-05T03:24:54.512Z,19.50
2017-09-05T03:27:22.195Z,19.50
2017-09-05T03:29:50.600Z,19.50
2017-09-05T03:32:18.400Z,19.50
2017-09-05T03:34:46.170Z,19.50
2017-09-05T03:37:13.827Z,19.50
2017-09-05T03:39:41.514Z,19.50
2017-09-05T03:42:09.288Z,19.50
2017-09-05T03:44:37.054Z,19.50
2017-09-05T03:47:04.919Z,19.50
2017-09-05T03:49:32.790Z,19.50
2017-09-05T03:52:00.424Z,19.50
2017-09-05T03:54:28.126Z,19.50
2017-09-05T03:56:56.699Z,19.50
2017-09-05T03:59:25.292Z,19.50
2017-09-05T04:01:52.995Z,19.50
2017-09-05T04:04:21.123Z,19.50
2017-09-05T04:06:49.629Z,19.50
2017-09-05T04:09:18.219Z,19.50
2017-09-05T04:11:46.149Z,19.50
2017-09-05T04:14:14.665Z,19.50
2017-09-05T04:16:44.525Z,19.50
2017-09-05T04:19:12.313Z,19.50
2017-09-05T04:21:40.004Z,19.50
2017-09-05T04:24:07.937Z,19.50
2017-09-05T04:26:35.652Z,19.50
2017-09-05T04:29:03.489Z,19.50
2017-09-05T04:31:31.113Z,19.50
2017-09-05T04:33:58.812Z,19.50
2017-09-05T04:36:26.504Z,19.50
2017-09-05T04:38:54.346Z,19.50
2017-09-05T04:41:22.310Z,19.50
2017-09-05T04:43:49.947Z,19.50
2017-09-05T04:46:17.635Z,19.50
2017-09-05T04:48:46.226Z,19.50
2017-09-05T04:51:14.001Z,19.50
2017-09-05T04:53:41.862Z,19.50
2017-09-05T04:56:09.730Z,19.50
2017-09-05T04:58:37.442Z,19.50
2017-09-05T05:01:05.134Z,19.50
2017-09-05T05:03:32.917Z,19.50
2017-09-05T05:06:01.342Z,19.50
2017-09-05T05:08:29.037Z,19.50
2017-09-05T05:10:57.700Z,19.50
2017-09-05T05:13:25.479Z,19.50
2017-09-05T05:15:53.159Z,19.50
2017-09-05T05:18:20.771Z,19.50
2017-09-05T05:20:48.385Z,19.50
2017-09-05T05:23:16.030Z,19.50
2017-09-05T05:25:43.684Z,19.50
2017-09-05T05:28:11.332Z,19.50
2017-09-05T05:30:38.937Z,19.50
2017-09-05T05:33:06.533Z,19.50
2017-09-05T05:35:34.158Z,19.50
2017-09-05T05:38:02.572Z,19.50
2017-09-05T05:40:30.188Z,19.50
2017-09-05T05:42:57.895Z,19.50
2017-09-05T05:45:25.530Z,19.50
2017-09-05T05:47:53.134Z,19.50
2017-09-05T05:50:20.828Z,19.40
2017-09-05T05:52:48.470Z,19.40
2017-09-05T05:55:16.078Z,19.30
2017-09-05T05:57:43.814Z,19.30
2017-09-05T06:00:11.451Z,19.30
2017-09-05T12:20:22.185Z,19.30
2017-09-05T12:22:49.794Z,20.40
2017-09-05T12:25:17.397Z,20.40
2017-09-05T12:27:45.000Z,20.40
2017-09-05T12:30:13.289Z,20.40
2017-09-05T12:32:40.936Z,20.40
2017-09-05T12:35:08.540Z,20.50
2017-09-05T12:37:36.141Z,20.50
2017-09-05T12:40:03.740Z,20.50
2017-09-05T12:42:31.335Z,20.50
2017-09-05T12:44:58.973Z,20.50
2017-09-05T12:47:26.572Z,20.50
2017-09-05T13:12:15.685Z,20.70
2017-09-05T13:14:43.294Z,21.50
2017-09-05T13:17:10.893Z,21.50
2017-09-05T13:19:38.672Z,21.60
2017-09-05T13:22:06.269Z,21.60
2017-09-05T13:24:33.905Z,21.60
2017-09-05T13:27:01.512Z,21.60
2017-09-05T13:29:29.121Z,21.60
2017-09-05T13:31:56.718Z,21.60
2017-09-05T13:34:24.320Z,21.60
2017-09-05T13:36:52.042Z,21.60
2017-09-05T13:39:19.640Z,21.60
2017-09-05T13:41:47.248Z,21.60
2017-09-05T13:44:14.845Z,21.60
2017-09-05T13:46:42.440Z,21.70
2017-09-05T13:49:10.049Z,21.70
2017-09-05T13:51:37.696Z,21.60
2017-09-05T13:54:05.302Z,21.50
2017-09-05T13:56:32.900Z,21.40
2017-09-05T13:59:00.509Z,21.40
2017-09-05T14:01:28.109Z,21.40
2017-09-05T14:03:55.788Z,21.40
2017-09-05T14:06:23.393Z,21.30
2017-09-05T14:08:51.000Z,21.30
2017-09-05T14:11:18.813Z,21.30
2017-09-05T14:13:46.412Z,21.30
2017-09-05T14:16:14.008Z,21.30
2017-09-05T14:18:41.624Z,21.20
2017-09-05T14:21:09.233Z,21.20
2017-09-05T14:23:36.839Z,21.20
2017-09-05T14:26:04.444Z,21.20
2017-09-05T14:28:32.078Z,21.20
2017-09-05T14:30:59.672Z,21.20
2017-09-05T14:33:27.267Z,21.20
2017-09-05T14:35:54.863Z,21.20
2017-09-05T14:38:22.460Z,21.10
2017-09-05T14:40:50.061Z,21.10
2017-09-05T14:43:17.697Z,21.20
2017-09-05T14:45:45.318Z,21.20
2017-09-05T14:48:12.963Z,21.20
2017-09-05T14:50:40.559Z,21.20
2017-09-05T14:53:08.160Z,21.20
2017-09-05T14:55:35.798Z,21.20
2017-09-05T14:58:03.400Z,21.10
2017-09-05T15:00:31.160Z,21.20
2017-09-05T15:02:58.795Z,21.20
2017-09-05T15:05:26.388Z,21.20
2017-09-05T15:07:53.988Z,21.20
2017-09-05T15:10:22.421Z,21.20
2017-09-05T15:12:50.027Z,21.20
2017-09-05T15:15:17.624Z,21.10
2017-09-05T15:17:45.231Z,21.10
2017-09-05T15:20:12.825Z,21.10
2017-09-05T15:22:41.257Z,21.10
2017-09-05T15:25:08.859Z,21.10
2017-09-05T15:27:36.461Z,21.00
2017-09-05T15:30:04.131Z,21.10
2017-09-05T15:32:31.752Z,21.00
2017-09-05T15:34:59.390Z,21.00
2017-09-05T15:37:26.988Z,21.00
2017-09-05T15:39:54.590Z,21.00
2017-09-05T15:42:22.196Z,21.00
2017-09-05T15:44:49.840Z,20.90
2017-09-05T15:47:17.440Z,20.90
2017-09-05T15:49:45.047Z,20.90
2017-09-05T15:52:12.652Z,20.90
2017-09-05T15:54:40.252Z,20.90
2017-09-05T15:57:07.881Z,20.90
2017-09-05T15:59:35.520Z,20.90
2017-09-05T16:02:03.132Z,20.90
2017-09-05T16:04:30.732Z,20.80
2017-09-05T16:06:58.325Z,20.70
2017-09-05T16:09:26.375Z,20.70
2017-09-05T16:11:53.971Z,20.70
2017-09-05T16:16:50.512Z,20.70
2017-09-05T16:19:18.119Z,20.70
2017-09-05T16:21:45.772Z,20.60
2017-09-05T16:24:13.463Z,20.70
2017-09-05T16:26:41.071Z,20.60
2017-09-05T16:29:08.818Z,20.60
2017-09-05T16:31:37.466Z,20.60
2017-09-05T16:34:05.402Z,20.60
2017-09-05T16:36:33.323Z,20.60
2017-09-05T16:39:01.990Z,20.50
2017-09-05T16:41:29.636Z,20.50
2017-09-05T16:43:57.241Z,20.50
2017-09-05T16:46:25.128Z,20.40
2017-09-05T16:48:53.058Z,20.40
2017-09-05T16:51:20.965Z,20.40
2017-09-05T16:53:48.889Z,20.40
2017-09-05T16:56:16.829Z,20.40
2017-09-05T16:58:44.505Z,20.40
2017-09-05T17:01:12.117Z,20.30
2017-09-05T17:03:39.991Z,20.30
2017-09-05T17:06:07.923Z,20.30
2017-09-05T17:08:35.576Z,20.30
2017-09-05T17:11:03.224Z,20.20
2017-09-05T17:13:30.828Z,20.20
2017-09-05T17:15:58.433Z,20.30
2017-09-05T17:18:26.272Z,20.30
2017-09-05T17:20:54.152Z,20.30
2017-09-05T17:23:21.885Z,20.30
2017-09-05T17:25:49.550Z,20.30
2017-09-05T17:28:17.240Z,20.30
2017-09-05T17:30:44.841Z,20.30
2017-09-05T17:33:12.443Z,20.30
2017-09-05T17:35:40.039Z,20.30
2017-09-05T17:38:07.649Z,20.30
2017-09-05T17:40:35.250Z,20.30
2017-09-05T17:43:02.849Z,20.30
2017-09-05T17:45:30.505Z,20.30
2017-09-05T17:47:58.110Z,20.30
2017-09-05T17:50:25.768Z,20.30
2017-09-05T17:52:53.369Z,20.30
2017-09-05T17:55:21.732Z,20.30
2017-09-05T17:57:49.341Z,20.20
2017-09-05T18:00:16.951Z,20.20
2017-09-05T18:02:44.601Z,20.20
2017-09-05T18:05:12.204Z,20.20
2017-09-05T18:07:40.617Z,20.20
2017-09-05T18:10:08.275Z,20.20
2017-09-05T18:12:37.574Z,20.30
2017-09-05T18:15:05.181Z,20.30
2017-09-05T18:17:36.336Z,20.30
2017-09-05T18:20:05.502Z,20.30
2017-09-05T18:22:33.461Z,20.30
2017-09-05T18:25:01.108Z,20.30
2017-09-05T18:27:28.727Z,20.30
2017-09-05T18:29:56.394Z,20.30
2017-09-05T18:32:23.998Z,20.30
2017-09-05T18:34:51.623Z,20.40
2017-09-05T18:37:19.230Z,20.40
2017-09-05T18:39:47.044Z,20.40
2017-09-05T18:42:14.708Z,20.40
2017-09-05T18:44:42.327Z,20.40
2017-09-05T18:47:09.967Z,20.40
2017-09-05T18:49:37.570Z,20.40
2017-09-05T18:52:05.333Z,20.40
2017-09-05T18:54:33.281Z,20.40
2017-09-05T18:57:01.332Z,20.40
2017-09-05T18:59:29.015Z,20.40
2017-09-05T19:01:56.662Z,20.40
2017-09-05T19:04:24.268Z,20.40
2017-09-05T19:06:52.038Z,20.40
2017-09-05T19:09:20.463Z,20.40
2017-09-05T19:11:48.660Z,20.40
2017-09-05T19:14:16.418Z,20.40
2017-09-05T19:16:44.058Z,20.40
2017-09-05T19:19:11.697Z,20.40
2017-09-05T19:21:39.344Z,20.40
2017-09-05T19:24:07.003Z,20.40
2017-09-05T19:26:34.632Z,20.40
2017-09-05T19:29:02.618Z,20.40
2017-09-05T19:31:30.324Z,20.40
2017-09-05T19:33:57.969Z,20.50
2017-09-05T19:36:25.761Z,20.50
2017-09-05T19:38:53.395Z,20.50
2017-09-05T19:41:21.608Z,20.50
2017-09-05T19:43:49.326Z,20.50
2017-09-05T19:46:17.030Z,20.50
2017-09-05T19:48:44.753Z,20.50
2017-09-05T19:51:12.478Z,20.50
2017-09-05T19:53:40.272Z,20.50
2017-09-05T19:56:08.219Z,20.50
2017-09-05T19:58:36.144Z,20.50
2017-09-05T20:01:04.475Z,20.50
2017-09-05T20:10:59.261Z,20.50
2017-09-05T20:13:40.079Z,20.50
2017-09-05T20:30:36.059Z,20.40
2017-09-05T20:33:03.776Z,20.40
2017-09-05T20:35:31.388Z,20.40
2017-09-05T20:37:58.998Z,20.50
2017-09-05T20:40:26.640Z,20.40
2017-09-05T20:42:54.249Z,20.40
2017-09-05T20:45:21.857Z,20.40
2017-09-05T20:47:49.500Z,20.40
2017-09-05T20:50:17.135Z,20.40
2017-09-05T20:52:44.789Z,20.40
2017-09-05T20:55:12.397Z,20.40
2017-09-05T20:57:40.005Z,20.40
2017-09-05T21:00:07.721Z,20.40
2017-09-05T21:02:35.332Z,20.40
2017-09-05T21:05:02.940Z,20.40
2017-09-05T21:07:30.547Z,20.40
2017-09-05T21:09:58.162Z,20.40
2017-09-05T21:12:25.817Z,20.40
2017-09-05T21:14:53.508Z,20.40
2017-09-05T21:17:21.142Z,20.40
2017-09-05T21:19:48.786Z,20.40
2017-09-05T21:22:16.398Z,20.40
2017-09-05T21:24:44.012Z,20.40
2017-09-05T21:27:11.622Z,20.40
2017-09-05T21:29:39.987Z,20.40
2017-09-05T21:32:07.589Z,20.40
2017-09-05T21:34:35.195Z,20.40
2017-09-05T21:37:02.849Z,20.40
2017-09-05T21:39:30.444Z,20.40
2017-09-05T21:41:58.057Z,20.40
2017-09-05T21:44:25.658Z,20.40
2017-09-05T21:46:53.261Z,20.40
2017-09-05T21:49:20.879Z,20.40
2017-09-05T21:51:48.480Z,20.40
2017-09-05T21:54:16.121Z,20.40
2017-09-05T21:56:43.731Z,20.40
2017-09-05T21:59:11.332Z,20.40
2017-09-05T22:01:38.928Z,20.40
2017-09-05T22:04:06.529Z,20.40
2017-09-05T22:06:34.133Z,20.40
2017-09-05T22:09:01.737Z,20.40
2017-09-05T22:11:29.340Z,20.40
2017-09-05T22:14:02.616Z,20.40
2017-09-05T22:16:35.758Z,20.40
2017-09-05T22:19:09.037Z,20.40
2017-09-05T22:21:36.635Z,20.40
2017-09-05T22:24:04.236Z,20.40
2017-09-05T22:26:37.500Z,20.40
2017-09-05T22:29:09.870Z,20.40
2017-09-05T22:31:37.472Z,20.40
2017-09-05T22:34:05.883Z,20.40
2017-09-05T22:36:33.476Z,20.40
2017-09-05T22:39:01.077Z,20.40
2017-09-05T22:41:28.677Z,20.40
2017-09-05T22:43:56.314Z,20.40
2017-09-05T22:46:23.924Z,20.40
2017-09-05T22:48:51.525Z,20.40
2017-09-05T22:51:19.121Z,20.40
2017-09-05T22:53:46.717Z,20.40
2017-09-05T22:56:14.367Z,20.40
2017-09-05T22:58:41.968Z,20.40
2017-09-05T23:01:09.571Z,20.40
2017-09-05T23:03:37.218Z,20.40
2017-09-05T23:06:04.826Z,20.40
2017-09-05T23:08:32.423Z,20.40
2017-09-05T23:11:00.077Z,20.40
2017-09-05T23:13:27.684Z,20.40
2017-09-05T23:15:55.299Z,20.40
2017-09-05T23:18:22.898Z,20.40
2017-09-05T23:20:50.497Z,20.40
2017-09-05T23:23:18.100Z,20.40
2017-09-05T23:25:45.696Z,20.30
2017-09-05T23:28:13.305Z,20.30
2017-09-05T23:30:40.915Z,20.30
2017-09-05T23:33:08.517Z,20.30
2017-09-05T23:35:36.161Z,20.30
2017-09-05T23:38:03.804Z,20.30
2017-09-05T23:40:31.414Z,20.30
2017-09-05T23:42:59.019Z,20.30
2017-09-05T23:45:26.621Z,20.30
2017-09-05T23:47:54.226Z,20.30
2017-09-05T23:50:21.834Z,20.30
2017-09-05T23:52:49.423Z,20.30
2017-09-05T23:55:17.059Z,20.30
2017-09-05T23:57:44.656Z,20.30
